createdAt,value
2023-03-23T15:58:45.733Z,14.70
2023-03-23T16:01:27.988Z,14.50
2023-03-23T16:04:09.443Z,14.50
2023-03-23T16:06:37.570Z,13.60
2023-03-23T16:09:05.791Z,13.70
2023-03-23T16:11:33.756Z,13.70
2023-03-23T16:14:01.122Z,13.10
2023-03-23T16:16:39.057Z,12.70
2023-03-23T16:19:06.668Z,12.50
2023-03-23T16:21:33.842Z,12.60
2023-03-23T16:24:01.456Z,12.50
2023-03-23T16:26:28.582Z,12.50
2023-03-23T16:29:06.110Z,12.60
2023-03-23T16:31:39.932Z,12.60
2023-03-23T16:34:07.742Z,12.70
2023-03-23T16:36:35.489Z,12.90
2023-03-23T16:39:02.779Z,13.60
2023-03-23T16:41:29.784Z,13.90
2023-03-23T16:43:56.686Z,15.10
2023-03-23T16:46:23.835Z,16.00
2023-03-23T16:48:50.915Z,17.00
2023-03-23T16:51:17.828Z,16.70
2023-03-23T16:53:44.760Z,16.60
2023-03-23T16:56:11.635Z,16.90
2023-03-23T16:58:38.955Z,16.10
2023-03-23T17:01:06.135Z,15.00
2023-03-23T17:03:33.592Z,14.40
2023-03-23T17:06:01.733Z,14.30
2023-03-23T17:08:28.806Z,14.40
2023-03-23T17:10:56.086Z,14.30
2023-03-23T17:13:23.187Z,13.50
2023-03-23T17:15:53.880Z,13.20
2023-03-23T17:18:21.147Z,13.00
2023-03-23T17:20:48.185Z,13.00
2023-03-23T17:23:15.179Z,13.00
2023-03-23T17:25:42.457Z,13.00
2023-03-23T17:28:09.535Z,12.90
2023-03-23T17:30:39.373Z,13.40
2023-03-23T17:33:06.320Z,13.30
2023-03-23T17:35:33.221Z,12.80
2023-03-23T17:38:00.716Z,12.30
2023-03-23T17:40:27.608Z,12.20
2023-03-23T17:42:54.454Z,12.40
2023-03-23T17:45:21.383Z,12.50
2023-03-23T17:47:48.260Z,12.50
2023-03-23T17:50:15.582Z,12.40
2023-03-23T17:52:43.735Z,12.20
2023-03-23T17:55:11.187Z,12.10
2023-03-23T17:57:38.145Z,11.80
2023-03-23T18:00:08.727Z,11.50
2023-03-23T18:02:38.558Z,11.50
2023-03-23T18:05:08.267Z,11.60
2023-03-23T18:07:35.495Z,11.40
2023-03-23T18:10:02.383Z,11.30
2023-03-23T18:12:29.502Z,11.40
2023-03-23T18:15:00.304Z,11.40
2023-03-23T18:17:27.435Z,11.40
2023-03-23T18:19:55.435Z,11.50
2023-03-23T18:22:22.851Z,11.60
2023-03-23T18:24:50.183Z,11.50
2023-03-23T18:27:17.395Z,11.60
2023-03-23T18:29:44.348Z,11.50
2023-03-23T18:32:11.287Z,11.50
2023-03-23T18:34:41.909Z,11.40
2023-03-23T18:37:08.966Z,11.30
2023-03-23T18:39:37.047Z,11.20
2023-03-23T18:42:04.555Z,11.00
2023-03-23T18:44:31.537Z,11.00
2023-03-23T18:46:58.711Z,11.00
2023-03-23T18:49:26.233Z,10.80
2023-03-23T18:51:53.107Z,10.80
2023-03-23T18:54:19.955Z,10.80
2023-03-23T18:56:46.989Z,10.80
2023-03-23T18:59:13.940Z,10.80
2023-03-23T19:01:40.928Z,10.70
2023-03-23T19:04:07.975Z,10.60
2023-03-23T19:06:35.268Z,10.70
2023-03-23T19:09:02.614Z,10.50
2023-03-23T19:11:30.087Z,10.60
2023-03-23T19:14:02.518Z,10.60
2023-03-23T19:16:32.332Z,10.60
2023-03-23T19:19:01.854Z,10.70
2023-03-23T19:21:31.947Z,10.80
2023-03-23T19:23:59.844Z,10.80
2023-03-23T19:26:37.564Z,10.90
2023-03-23T19:29:26.287Z,10.90
2023-03-23T19:31:55.451Z,11.00
2023-03-23T19:34:25.649Z,11.00
2023-03-23T19:36:59.620Z,10.90
2023-03-23T19:39:31.384Z,10.90
2023-03-23T19:41:58.994Z,10.70
2023-03-23T19:44:26.401Z,10.70
2023-03-23T19:46:53.988Z,10.60
2023-03-23T19:49:21.028Z,10.60
2023-03-23T19:51:47.932Z,10.50
2023-03-23T19:54:15.240Z,10.50
2023-03-23T19:56:43.383Z,10.50
2023-03-23T19:59:15.452Z,10.60
2023-03-23T20:01:43.266Z,10.60
2023-03-23T20:04:12.011Z,10.70
2023-03-23T20:06:39.325Z,10.70
2023-03-23T20:09:07.331Z,10.70
2023-03-23T20:11:34.617Z,10.70
2023-03-23T20:14:01.641Z,10.70
2023-03-23T20:16:29.208Z,10.70
2023-03-23T20:18:59.984Z,10.60
2023-03-23T20:21:27.569Z,10.50
2023-03-23T20:23:57.026Z,10.40
2023-03-23T20:26:31.242Z,10.40
2023-03-23T20:28:58.951Z,10.30
2023-03-23T20:31:29.305Z,10.40
2023-03-23T20:34:02.698Z,10.30
2023-03-23T20:36:36.680Z,10.40
2023-03-23T20:39:10.701Z,10.20
2023-03-23T20:41:38.919Z,10.00
2023-03-23T20:44:08.229Z,9.90
2023-03-23T20:46:35.754Z,9.90
2023-03-23T20:49:06.050Z,10.00
2023-03-23T20:51:33.673Z,10.00
2023-03-23T20:54:02.138Z,10.00
2023-03-23T20:56:29.466Z,10.10
2023-03-23T20:58:56.571Z,10.10
2023-03-23T21:01:23.528Z,10.00
2023-03-23T21:03:52.475Z,10.00
2023-03-23T21:06:20.183Z,10.00
2023-03-23T21:08:47.234Z,9.90
2023-03-23T21:11:18.646Z,10.00
2023-03-23T21:13:46.554Z,10.00
2023-03-23T21:16:13.824Z,10.00
2023-03-23T21:18:41.958Z,10.00
2023-03-23T21:21:11.281Z,9.80
2023-03-23T21:23:39.265Z,9.80
2023-03-23T21:26:10.806Z,9.80
2023-03-23T21:28:37.891Z,9.80
2023-03-23T21:31:07.463Z,9.70
2023-03-23T21:33:35.214Z,9.80
2023-03-23T21:36:02.463Z,9.80
2023-03-23T21:38:29.653Z,9.80
2023-03-23T21:40:59.786Z,9.80
2023-03-23T21:43:27.889Z,9.70
2023-03-23T21:46:02.959Z,9.70
2023-03-23T21:48:30.106Z,9.70
2023-03-23T21:50:57.428Z,9.70
2023-03-23T21:53:25.630Z,9.80
2023-03-23T21:55:52.973Z,9.70
2023-03-23T21:58:22.332Z,9.70
2023-03-23T22:00:53.888Z,9.60
2023-03-23T22:03:23.552Z,9.60
2023-03-23T22:05:54.412Z,9.40
2023-03-23T22:08:26.606Z,9.40
2023-03-23T22:11:01.451Z,9.30
2023-03-23T22:13:30.522Z,9.30
2023-03-23T22:16:00.963Z,9.20
2023-03-23T22:18:28.403Z,9.20
2023-03-23T22:20:55.457Z,9.20
2023-03-23T22:23:22.446Z,9.20
2023-03-23T22:25:49.402Z,9.20
2023-03-23T22:28:17.564Z,9.20
2023-03-23T22:30:44.699Z,9.20
2023-03-23T22:33:12.255Z,9.20
2023-03-23T22:35:39.301Z,9.20
2023-03-23T22:38:06.278Z,9.30
2023-03-23T22:40:33.214Z,9.30
2023-03-23T22:43:00.275Z,9.40
2023-03-23T22:45:28.147Z,9.40
2023-03-23T22:47:57.617Z,9.50
2023-03-23T22:50:24.720Z,9.40
2023-03-23T22:52:51.634Z,9.50
2023-03-23T22:55:18.642Z,9.50
2023-03-23T22:57:46.134Z,9.50
2023-03-23T23:00:18.682Z,9.40
2023-03-23T23:02:45.892Z,9.40
2023-03-23T23:05:13.843Z,9.40
2023-03-23T23:07:40.944Z,9.30
2023-03-23T23:10:08.296Z,9.10
2023-03-23T23:12:35.503Z,9.10
2023-03-23T23:15:07.016Z,9.20
2023-03-23T23:17:34.933Z,9.30
2023-03-23T23:20:05.666Z,9.20
2023-03-23T23:22:33.707Z,9.30
2023-03-23T23:25:01.260Z,9.10
2023-03-23T23:27:28.328Z,9.10
2023-03-23T23:29:55.281Z,9.20
2023-03-23T23:32:22.200Z,9.10
2023-03-23T23:34:49.149Z,9.10
2023-03-23T23:37:16.148Z,9.10
2023-03-23T23:39:43.131Z,9.10
2023-03-23T23:42:10.310Z,9.10
2023-03-23T23:44:38.262Z,9.10
2023-03-23T23:47:05.951Z,9.00
2023-03-23T23:49:34.343Z,9.10
2023-03-23T23:52:01.559Z,9.00
2023-03-23T23:54:31.847Z,9.10
2023-03-23T23:57:00.046Z,9.00
2023-03-23T23:59:27.328Z,8.90
